createdAt,value
2017-08-24T00:01:03.211Z,10.47
2017-08-24T00:03:30.680Z,9.70
2017-08-24T00:05:58.180Z,10.20
2017-08-24T00:08:25.856Z,10.60
2017-08-24T00:10:53.455Z,9.33
2017-08-24T00:13:20.956Z,9.60
2017-08-24T00:15:48.426Z,8.03
2017-08-24T00:18:15.927Z,11.37
2017-08-24T00:20:43.426Z,10.77
2017-08-24T00:23:10.942Z,13.37
2017-08-24T00:25:38.410Z,9.37
2017-08-24T00:28:05.919Z,8.67
2017-08-24T00:30:33.476Z,13.10
2017-08-24T00:33:01.031Z,7.43
2017-08-24T00:35:28.607Z,10.90
2017-08-24T00:37:56.135Z,10.13
2017-08-24T00:40:23.702Z,10.97
2017-08-24T00:42:51.266Z,9.80
2017-08-24T00:45:18.737Z,10.03
2017-08-24T00:47:46.217Z,10.73
2017-08-24T00:50:13.717Z,7.13
2017-08-24T00:52:41.194Z,11.93
2017-08-24T00:55:08.756Z,10.13
2017-08-24T00:57:36.306Z,9.50
2017-08-24T01:00:03.855Z,13.87
2017-08-24T01:02:31.371Z,7.50
2017-08-24T01:04:58.833Z,8.10
2017-08-24T01:07:26.312Z,13.43
2017-08-24T01:09:53.786Z,10.53
2017-08-24T01:12:21.401Z,10.13
2017-08-24T01:14:48.898Z,7.77
2017-08-24T01:17:16.379Z,10.23
2017-08-24T01:19:43.862Z,10.03
2017-08-24T01:22:11.340Z,9.77
2017-08-24T01:24:38.792Z,6.80
2017-08-24T01:27:06.299Z,13.90
2017-08-24T01:29:33.763Z,10.17
2017-08-24T01:32:01.413Z,10.73
2017-08-24T01:34:28.961Z,9.10
2017-08-24T01:36:56.478Z,8.10
2017-08-24T01:39:24.007Z,9.40
2017-08-24T01:41:51.479Z,7.27
2017-08-24T01:44:18.997Z,8.30
2017-08-24T01:46:46.471Z,6.77
2017-08-24T01:49:13.949Z,8.93
2017-08-24T01:51:41.462Z,7.03
2017-08-24T01:54:09.036Z,8.87
2017-08-24T01:56:36.510Z,10.50
2017-08-24T01:59:03.977Z,9.73
2017-08-24T02:01:31.431Z,8.47
2017-08-24T02:03:59.007Z,7.23
2017-08-24T02:06:26.454Z,9.27
2017-08-24T02:08:53.937Z,6.23
2017-08-24T02:11:21.421Z,9.63
2017-08-24T02:13:48.986Z,8.53
2017-08-24T02:16:16.441Z,8.73
2017-08-24T02:18:44.002Z,6.53
2017-08-24T02:21:11.557Z,11.93
2017-08-24T02:23:39.051Z,7.33
2017-08-24T02:26:06.509Z,6.20
2017-08-24T02:28:34.034Z,9.40
2017-08-24T02:31:01.597Z,8.10
2017-08-24T02:33:29.083Z,9.47
2017-08-24T02:35:56.658Z,5.97
2017-08-24T02:38:24.113Z,13.13
2017-08-24T02:40:51.582Z,7.70
2017-08-24T02:43:19.065Z,8.17
2017-08-24T02:45:46.629Z,8.20
2017-08-24T02:48:14.207Z,9.63
2017-08-24T02:50:41.680Z,8.93
2017-08-24T02:53:09.226Z,8.80
2017-08-24T02:55:36.779Z,8.60
2017-08-24T02:58:04.319Z,9.13
2017-08-24T03:00:31.790Z,7.00
2017-08-24T03:02:59.333Z,8.93
2017-08-24T03:05:26.903Z,7.37
2017-08-24T03:07:54.371Z,14.93
2017-08-24T03:10:21.833Z,8.60
2017-08-24T03:12:49.303Z,11.03
2017-08-24T03:15:16.779Z,11.07
2017-08-24T03:17:44.224Z,8.90
2017-08-24T03:20:11.801Z,8.00
2017-08-24T03:22:39.261Z,8.83
2017-08-24T03:25:06.758Z,11.27
2017-08-24T03:27:34.313Z,10.80
2017-08-24T03:30:01.878Z,8.83
2017-08-24T03:32:29.428Z,10.03
2017-08-24T03:34:56.889Z,8.97
2017-08-24T03:37:24.409Z,8.27
2017-08-24T03:39:51.906Z,8.57
2017-08-24T03:42:19.470Z,7.70
2017-08-24T03:44:47.024Z,10.80
2017-08-24T03:47:14.691Z,9.93
2017-08-24T03:49:42.169Z,10.67
2017-08-24T03:52:09.701Z,7.63
2017-08-24T03:54:37.254Z,15.13
2017-08-24T03:57:04.819Z,7.40
2017-08-24T03:59:32.287Z,8.93
2017-08-24T04:01:59.754Z,8.93
2017-08-24T04:04:27.212Z,14.10
2017-08-24T04:06:54.747Z,10.13
2017-08-24T04:09:22.311Z,10.27
2017-08-24T04:11:49.773Z,7.60
2017-08-24T04:14:17.244Z,10.70
2017-08-24T04:16:44.766Z,8.60
2017-08-24T04:19:12.322Z,12.10
2017-08-24T04:21:39.805Z,10.80
2017-08-24T04:24:07.279Z,9.00
2017-08-24T04:26:34.858Z,10.67
2017-08-24T04:29:02.362Z,11.87
2017-08-24T04:31:29.920Z,7.47
2017-08-24T04:33:57.477Z,9.50
2017-08-24T04:36:25.103Z,10.93
2017-08-24T04:38:52.569Z,10.10
2017-08-24T04:41:20.055Z,9.83
2017-08-24T04:43:47.547Z,18.83
2017-08-24T04:46:15.005Z,10.17
2017-08-24T04:48:42.488Z,8.50
2017-08-24T04:51:09.972Z,8.43
2017-08-24T04:53:37.455Z,8.43
2017-08-24T04:56:04.994Z,10.87
2017-08-24T04:58:32.588Z,9.57
2017-08-24T05:01:01.011Z,9.10
2017-08-24T05:03:28.626Z,11.00
2017-08-24T05:05:56.140Z,10.47
2017-08-24T05:08:23.709Z,8.87
2017-08-24T05:10:51.186Z,8.13
2017-08-24T05:13:18.663Z,8.17
2017-08-24T05:15:46.183Z,6.73
2017-08-24T05:18:13.732Z,11.07
2017-08-24T05:20:41.284Z,10.30
2017-08-24T05:23:08.766Z,8.40
2017-08-24T05:25:36.986Z,8.13
2017-08-24T05:28:05.765Z,7.63
2017-08-24T05:30:33.841Z,11.63
2017-08-24T05:33:01.474Z,11.73
2017-08-24T05:35:29.002Z,8.03
2017-08-24T05:37:56.569Z,8.97
2017-08-24T05:40:24.077Z,7.70
2017-08-24T05:42:51.550Z,10.10
2017-08-24T05:45:19.091Z,8.87
2017-08-24T05:47:46.567Z,11.17
2017-08-24T05:50:14.060Z,10.40
2017-08-24T05:52:41.622Z,9.10
2017-08-24T05:55:09.108Z,10.43
2017-08-24T05:57:36.646Z,7.47
2017-08-24T06:00:04.108Z,8.77
2017-08-24T06:02:31.661Z,7.40
2017-08-24T06:04:59.206Z,9.87
2017-08-24T06:07:26.680Z,7.00
2017-08-24T06:09:54.171Z,14.40
2017-08-24T06:12:21.632Z,8.10
2017-08-24T06:14:49.139Z,10.17
2017-08-24T06:17:16.686Z,7.67
2017-08-24T06:19:44.160Z,8.47
2017-08-24T06:22:11.641Z,11.50
2017-08-24T06:24:39.122Z,13.63
2017-08-24T06:27:06.674Z,7.37
2017-08-24T06:29:34.137Z,9.80
2017-08-24T06:32:01.638Z,9.70
2017-08-24T06:34:29.189Z,13.00
2017-08-24T06:36:56.671Z,7.60
2017-08-24T06:39:24.311Z,8.23
2017-08-24T06:41:51.781Z,8.70
2017-08-24T06:44:19.248Z,8.90
2017-08-24T06:46:46.781Z,11.87
2017-08-24T06:49:14.340Z,18.90
2017-08-24T06:51:41.815Z,10.80
2017-08-24T06:54:09.350Z,11.37
2017-08-24T06:56:36.910Z,9.47
2017-08-24T06:59:04.425Z,5.63
2017-08-24T07:01:31.890Z,7.80
2017-08-24T07:03:59.388Z,8.80
2017-08-24T07:06:26.934Z,8.60
2017-08-24T07:08:54.404Z,6.57
2017-08-24T07:11:21.966Z,5.50
2017-08-24T07:13:49.518Z,18.07
2017-08-24T07:16:16.987Z,9.93
2017-08-24T07:18:44.525Z,6.30
2017-08-24T07:21:11.993Z,5.23
2017-08-24T07:23:39.547Z,7.80
2017-08-24T07:26:07.111Z,14.00
2017-08-24T07:28:34.669Z,4.10
2017-08-24T07:31:02.215Z,7.67
2017-08-24T07:33:29.791Z,9.23
2017-08-24T07:35:57.333Z,14.50
2017-08-24T07:38:24.801Z,6.07
2017-08-24T07:40:52.345Z,13.53
2017-08-24T07:43:19.834Z,7.60
2017-08-24T07:45:47.367Z,7.90
2017-08-24T07:48:14.924Z,5.33
2017-08-24T07:50:42.401Z,6.57
2017-08-24T07:53:09.958Z,5.90
2017-08-24T07:55:37.527Z,8.90
2017-08-24T07:58:05.069Z,7.07
2017-08-24T08:00:32.538Z,4.97
2017-08-24T08:03:00.001Z,5.80
2017-08-24T08:05:27.549Z,6.70
2017-08-24T08:07:55.005Z,7.80
2017-08-24T08:10:22.482Z,3.87
2017-08-24T08:12:50.023Z,3.57
2017-08-24T08:15:18.280Z,4.37
2017-08-24T08:17:45.791Z,5.47
2017-08-24T08:20:13.269Z,5.63
2017-08-24T08:22:40.732Z,3.63
2017-08-24T08:25:08.319Z,5.30
2017-08-24T08:27:35.779Z,9.03
2017-08-24T08:30:03.253Z,3.57
2017-08-24T08:32:30.717Z,9.53
2017-08-24T08:34:58.211Z,8.40
2017-08-24T08:37:25.685Z,4.90
2017-08-24T08:39:53.174Z,3.80
2017-08-24T08:42:20.656Z,3.10
2017-08-24T08:44:48.203Z,6.80
2017-08-24T08:47:15.720Z,3.93
2017-08-24T08:49:43.335Z,10.07
2017-08-24T08:52:10.796Z,4.67
2017-08-24T08:54:38.261Z,3.73
2017-08-24T08:57:05.759Z,7.70
2017-08-24T08:59:33.314Z,4.50
2017-08-24T09:02:00.800Z,7.10
2017-08-24T09:04:28.267Z,3.90
2017-08-24T09:06:55.747Z,7.47
2017-08-24T09:09:23.197Z,3.03
2017-08-24T09:11:50.689Z,6.87
2017-08-24T09:14:18.253Z,4.03
2017-08-24T09:16:45.819Z,3.30
2017-08-24T09:19:13.369Z,2.97
2017-08-24T09:21:40.926Z,8.00
2017-08-24T09:24:08.389Z,4.03
2017-08-24T09:26:35.853Z,3.40
2017-08-24T09:29:03.355Z,3.13
2017-08-24T09:31:30.809Z,3.73
2017-08-24T09:33:58.311Z,3.30
2017-08-24T09:36:25.773Z,3.10
2017-08-24T09:38:53.333Z,3.67
2017-08-24T09:41:20.892Z,5.70
2017-08-24T09:43:48.446Z,5.60
2017-08-24T09:46:15.913Z,6.93
2017-08-24T09:48:43.470Z,6.60
2017-08-24T09:51:11.031Z,5.40
2017-08-24T09:53:38.497Z,6.40
2017-08-24T09:56:06.040Z,4.73
2017-08-24T09:58:33.511Z,3.07
2017-08-24T10:01:00.982Z,5.83
2017-08-24T10:03:28.521Z,11.33
2017-08-24T10:05:56.778Z,4.73
2017-08-24T10:08:24.250Z,11.50
2017-08-24T10:10:51.734Z,6.90
2017-08-24T10:13:19.212Z,4.13
2017-08-24T10:15:46.661Z,4.07
2017-08-24T10:18:14.280Z,6.37
2017-08-24T10:20:41.835Z,6.77
2017-08-24T10:23:09.296Z,6.80
2017-08-24T10:25:36.802Z,5.20
2017-08-24T10:28:04.274Z,4.27
2017-08-24T10:30:31.780Z,7.63
2017-08-24T10:32:59.241Z,6.93
2017-08-24T10:35:26.828Z,6.83
2017-08-24T10:37:54.294Z,3.50
2017-08-24T10:40:21.756Z,5.30
2017-08-24T10:42:49.246Z,5.07
2017-08-24T10:45:16.830Z,4.33
2017-08-24T10:47:44.294Z,4.50
2017-08-24T10:50:11.823Z,5.50
2017-08-24T10:52:39.297Z,5.07
2017-08-24T10:55:06.889Z,9.97
2017-08-24T10:57:34.360Z,3.30
2017-08-24T11:00:01.821Z,5.73
2017-08-24T11:02:29.299Z,9.13
2017-08-24T11:04:56.759Z,5.27
2017-08-24T11:07:24.324Z,7.93
2017-08-24T11:09:51.781Z,6.03
2017-08-24T11:12:19.245Z,6.30
2017-08-24T11:14:46.823Z,5.63
2017-08-24T11:17:14.345Z,4.33
2017-08-24T11:19:41.912Z,4.10
2017-08-24T11:22:09.370Z,7.93
2017-08-24T11:24:36.861Z,10.30
2017-08-24T11:27:04.386Z,9.07
2017-08-24T11:29:31.947Z,3.80
2017-08-24T11:31:59.414Z,4.17
2017-08-24T11:34:26.965Z,3.83
2017-08-24T11:36:54.429Z,6.53
2017-08-24T11:39:21.905Z,6.87
2017-08-24T11:41:49.375Z,7.77
2017-08-24T11:44:16.829Z,4.80
2017-08-24T11:46:44.316Z,5.43
2017-08-24T11:49:11.801Z,7.57
2017-08-24T11:51:39.350Z,4.80
2017-08-24T11:54:06.909Z,8.30
2017-08-24T11:56:34.379Z,9.30
2017-08-24T11:59:01.853Z,5.93
2017-08-24T12:01:29.484Z,5.70
2017-08-24T12:03:56.945Z,5.00
2017-08-24T12:06:24.492Z,7.10
2017-08-24T12:08:51.950Z,9.63
2017-08-24T12:11:19.562Z,8.87
2017-08-24T12:13:47.028Z,6.40
2017-08-24T12:16:14.537Z,7.00
2017-08-24T12:18:42.007Z,8.40
2017-08-24T12:21:09.550Z,8.57
2017-08-24T12:23:37.057Z,7.03
2017-08-24T12:26:04.561Z,8.33
2017-08-24T12:28:32.024Z,6.10
2017-08-24T12:30:59.498Z,8.43
2017-08-24T12:33:26.953Z,8.70
2017-08-24T12:35:54.490Z,8.43
2017-08-24T12:38:22.104Z,10.20
2017-08-24T12:40:49.611Z,14.20
2017-08-24T12:43:17.058Z,8.73
2017-08-24T12:45:44.518Z,14.70
2017-08-24T12:48:12.077Z,15.90
2017-08-24T12:50:39.638Z,8.77
2017-08-24T12:53:07.246Z,15.87
2017-08-24T12:55:34.759Z,8.20
2017-08-24T12:58:02.221Z,7.80
2017-08-24T13:00:29.690Z,13.70
2017-08-24T13:02:57.361Z,10.53
2017-08-24T13:05:24.821Z,8.47
2017-08-24T13:07:52.376Z,8.73
2017-08-24T13:10:19.843Z,10.70
2017-08-24T13:12:47.316Z,9.50
2017-08-24T13:15:14.788Z,12.27
2017-08-24T13:17:42.270Z,11.33
2017-08-24T13:20:09.835Z,10.93
2017-08-24T13:22:37.306Z,12.00
2017-08-24T13:25:04.859Z,12.77
2017-08-24T13:27:32.325Z,18.00
2017-08-24T13:29:59.866Z,23.57
2017-08-24T13:32:27.336Z,12.33
2017-08-24T13:34:54.822Z,16.03
2017-08-24T13:37:22.390Z,11.97
2017-08-24T13:39:49.891Z,14.53
2017-08-24T13:42:17.458Z,22.33
2017-08-24T13:44:44.925Z,13.50
2017-08-24T13:47:12.397Z,15.13
2017-08-24T13:49:39.917Z,18.90
2017-08-24T13:52:07.478Z,22.27
2017-08-24T13:54:34.960Z,17.60
2017-08-24T13:57:02.520Z,19.13
2017-08-24T13:59:30.053Z,16.50
2017-08-24T14:01:57.526Z,20.57
2017-08-24T14:04:25.002Z,18.07
2017-08-24T14:06:52.462Z,19.97
2017-08-24T14:09:19.984Z,17.73
2017-08-24T14:11:47.596Z,25.37
2017-08-24T14:14:15.082Z,23.10
2017-08-24T14:16:42.582Z,20.50
2017-08-24T14:19:10.169Z,22.10
2017-08-24T14:21:37.669Z,21.50
2017-08-24T14:24:05.243Z,19.93
2017-08-24T14:26:32.726Z,22.43
2017-08-24T14:29:00.189Z,19.30
2017-08-24T14:31:27.668Z,20.90
2017-08-24T14:33:55.216Z,21.57
2017-08-24T14:36:22.773Z,21.30
2017-08-24T14:38:50.331Z,18.53
2017-08-24T14:41:17.838Z,26.93
2017-08-24T14:43:45.410Z,23.30
2017-08-24T14:46:12.971Z,28.93
2017-08-24T14:48:40.518Z,24.20
2017-08-24T14:51:08.087Z,28.93
2017-08-24T14:53:35.629Z,30.20
2017-08-24T14:56:03.199Z,36.43
2017-08-24T14:58:30.746Z,22.03
2017-08-24T15:00:58.299Z,26.40
2017-08-24T15:03:25.767Z,24.77
2017-08-24T15:05:53.313Z,22.03
2017-08-24T15:08:20.784Z,23.97
2017-08-24T15:10:48.329Z,25.73
2017-08-24T15:13:15.805Z,25.57
2017-08-24T15:15:43.269Z,28.40
2017-08-24T15:18:10.759Z,23.10
2017-08-24T15:20:38.257Z,29.63
2017-08-24T15:23:05.810Z,23.17
2017-08-24T15:25:33.373Z,20.40
2017-08-24T15:28:00.858Z,22.87
2017-08-24T15:30:28.452Z,22.43
2017-08-24T15:32:55.911Z,25.97
2017-08-24T15:35:23.382Z,24.03
2017-08-24T15:37:50.884Z,20.70
2017-08-24T15:40:18.353Z,23.17
2017-08-24T15:42:45.941Z,25.00
2017-08-24T15:45:13.410Z,25.20
2017-08-24T15:47:40.900Z,28.60
2017-08-24T15:50:08.387Z,31.87
2017-08-24T15:52:35.937Z,31.90
2017-08-24T15:55:03.411Z,36.37
2017-08-24T15:57:30.869Z,28.20
2017-08-24T15:59:58.364Z,29.23
2017-08-24T16:02:25.831Z,30.10
2017-08-24T16:04:53.304Z,31.53
2017-08-24T16:07:20.771Z,29.13
2017-08-24T16:09:48.312Z,29.20
2017-08-24T16:12:15.797Z,31.70
2017-08-24T16:14:43.331Z,32.33
2017-08-24T16:17:10.885Z,30.70
2017-08-24T16:19:38.362Z,33.17
2017-08-24T16:22:05.909Z,32.17
2017-08-24T16:24:33.425Z,31.20
2017-08-24T16:27:00.946Z,30.43
2017-08-24T16:29:28.493Z,26.20
2017-08-24T16:31:55.953Z,29.80
2017-08-24T16:34:23.502Z,29.67
2017-08-24T16:36:50.983Z,30.97
2017-08-24T16:39:18.445Z,31.63
2017-08-24T16:41:45.920Z,42.83
2017-08-24T16:44:13.422Z,26.47
2017-08-24T16:46:40.982Z,43.03
2017-08-24T16:49:08.447Z,35.00
2017-08-24T16:51:35.939Z,35.93
2017-08-24T16:54:03.445Z,24.67
2017-08-24T16:56:31.015Z,33.23
2017-08-24T16:58:58.492Z,42.10
2017-08-24T17:01:25.991Z,35.33
2017-08-24T17:03:53.454Z,38.57
2017-08-24T17:06:21.913Z,36.37
2017-08-24T17:08:49.418Z,40.37
2017-08-24T17:11:16.958Z,45.83
2017-08-24T17:13:44.449Z,34.37
2017-08-24T17:16:12.691Z,32.00
2017-08-24T17:18:40.170Z,34.07
2017-08-24T17:21:07.742Z,32.43
2017-08-24T17:23:35.218Z,30.40
2017-08-24T17:26:02.698Z,32.43
2017-08-24T17:28:30.209Z,34.00
2017-08-24T17:30:57.758Z,35.73
2017-08-24T17:33:25.328Z,40.27
2017-08-24T17:35:52.824Z,38.07
2017-08-24T17:38:20.292Z,33.40
2017-08-24T17:40:47.783Z,30.80
2017-08-24T17:43:15.346Z,37.73
2017-08-24T17:45:42.960Z,32.63
2017-08-24T17:48:10.421Z,33.47
2017-08-24T17:50:37.921Z,34.43
2017-08-24T17:53:05.532Z,31.60
2017-08-24T17:55:33.006Z,31.70
2017-08-24T17:58:00.495Z,33.47
2017-08-24T18:00:27.967Z,30.73
2017-08-24T18:02:55.565Z,31.57
2017-08-24T18:05:23.032Z,37.03
2017-08-24T18:07:50.533Z,28.63
2017-08-24T18:10:18.007Z,34.50
2017-08-24T18:12:45.488Z,29.70
2017-08-24T18:15:13.007Z,25.40
2017-08-24T18:17:40.545Z,24.13
2017-08-24T18:20:08.016Z,25.50
2017-08-24T18:22:35.516Z,26.50
2017-08-24T18:25:03.006Z,29.10
2017-08-24T18:27:30.638Z,31.30
2017-08-24T18:29:58.183Z,30.07
2017-08-24T18:32:25.681Z,29.47
2017-08-24T18:34:53.312Z,28.17
2017-08-24T18:37:20.774Z,29.60
2017-08-24T18:39:48.288Z,35.20
2017-08-24T18:42:15.782Z,26.00
2017-08-24T18:44:43.249Z,25.80
2017-08-24T18:47:10.754Z,25.10
2017-08-24T18:49:38.298Z,26.40
2017-08-24T18:52:06.308Z,25.53
2017-08-24T18:54:33.785Z,26.60
2017-08-24T18:57:01.295Z,33.07
2017-08-24T18:59:28.797Z,29.20
2017-08-24T19:01:56.263Z,24.90
2017-08-24T19:04:23.754Z,29.30
2017-08-24T19:06:51.231Z,31.97
2017-08-24T19:09:18.705Z,29.63
2017-08-24T19:11:46.271Z,29.03
2017-08-24T19:14:13.793Z,26.83
2017-08-24T19:16:41.276Z,28.47
2017-08-24T19:19:08.819Z,29.63
2017-08-24T19:21:36.372Z,33.93
2017-08-24T19:24:03.933Z,30.03
2017-08-24T19:26:31.426Z,31.20
2017-08-24T19:28:58.890Z,31.37
2017-08-24T19:31:26.422Z,32.50
2017-08-24T19:33:53.955Z,28.07
2017-08-24T19:36:21.440Z,26.20
2017-08-24T19:38:48.970Z,25.60
2017-08-24T19:41:16.534Z,28.83
2017-08-24T19:43:43.996Z,29.03
2017-08-24T19:46:11.570Z,29.87
2017-08-24T19:48:39.033Z,27.50
2017-08-24T19:51:06.576Z,26.77
2017-08-24T19:53:34.036Z,33.57
2017-08-24T19:56:01.576Z,32.70
2017-08-24T19:58:29.050Z,26.70
2017-08-24T20:00:56.699Z,31.07
2017-08-24T20:03:24.196Z,28.50
2017-08-24T20:05:51.706Z,28.93
2017-08-24T20:08:19.165Z,30.67
2017-08-24T20:10:46.634Z,27.97
2017-08-24T20:13:14.191Z,31.77
2017-08-24T20:15:41.684Z,31.40
2017-08-24T20:18:09.175Z,32.57
2017-08-24T20:20:36.648Z,33.83
2017-08-24T20:23:04.205Z,28.13
2017-08-24T20:25:31.678Z,27.73
2017-08-24T20:27:59.161Z,29.90
2017-08-24T20:30:26.665Z,28.50
2017-08-24T20:32:54.142Z,30.37
2017-08-24T20:35:21.689Z,30.73
2017-08-24T20:37:49.246Z,31.83
2017-08-24T20:40:16.702Z,32.77
2017-08-24T20:42:44.258Z,32.07
2017-08-24T20:45:11.725Z,29.63
2017-08-24T20:47:39.279Z,34.37
2017-08-24T20:50:06.847Z,32.70
2017-08-24T20:52:34.316Z,32.90
2017-08-24T20:55:01.790Z,31.13
2017-08-24T20:57:29.314Z,35.57
2017-08-24T20:59:56.777Z,27.50
2017-08-24T21:02:24.275Z,34.30
2017-08-24T21:04:51.752Z,36.30
2017-08-24T21:07:19.253Z,32.43
2017-08-24T21:09:46.718Z,35.30
2017-08-24T21:12:14.194Z,35.13
2017-08-24T21:14:41.664Z,39.17
2017-08-24T21:17:09.132Z,40.77
2017-08-24T21:19:36.646Z,37.33
2017-08-24T21:22:04.130Z,38.27
2017-08-24T21:24:31.645Z,42.00
2017-08-24T21:26:59.110Z,41.77
2017-08-24T21:29:26.660Z,44.07
2017-08-24T21:31:54.200Z,42.53
2017-08-24T21:34:21.690Z,42.03
2017-08-24T21:36:49.157Z,40.17
2017-08-24T21:39:16.634Z,44.40
2017-08-24T21:41:44.111Z,34.90
2017-08-24T21:44:11.609Z,40.37
2017-08-24T21:46:39.080Z,39.77
2017-08-24T21:49:06.585Z,38.40
2017-08-24T21:51:34.107Z,35.77
2017-08-24T21:54:01.588Z,38.27
2017-08-24T21:56:29.062Z,35.53
2017-08-24T21:58:56.542Z,38.10
2017-08-24T22:01:24.108Z,35.03
2017-08-24T22:03:51.566Z,37.33
2017-08-24T22:06:19.034Z,33.80
2017-08-24T22:08:46.570Z,36.70
2017-08-24T22:11:14.047Z,38.13
2017-08-24T22:13:41.588Z,39.80
2017-08-24T22:16:09.049Z,34.77
2017-08-24T22:18:36.603Z,33.40
2017-08-24T22:21:04.153Z,35.43
2017-08-24T22:23:31.613Z,38.70
2017-08-24T22:25:59.177Z,35.70
2017-08-24T22:28:26.750Z,35.83
2017-08-24T22:30:54.312Z,38.73
2017-08-24T22:33:21.790Z,31.07
2017-08-24T22:35:49.268Z,41.27
2017-08-24T22:38:16.767Z,32.07
2017-08-24T22:40:44.317Z,32.03
2017-08-24T22:43:11.888Z,33.93
2017-08-24T22:45:39.373Z,36.70
2017-08-24T22:48:06.900Z,35.80
2017-08-24T22:50:34.470Z,34.13
2017-08-24T22:56:07.546Z,34.67
2017-08-24T22:58:51.850Z,35.27
2017-08-24T23:01:25.104Z,28.67
2017-08-24T23:03:58.369Z,40.90
2017-08-24T23:06:25.852Z,39.87
2017-08-24T23:08:53.311Z,31.90
2017-08-24T23:11:20.795Z,33.00
2017-08-24T23:13:48.267Z,34.90
2017-08-24T23:16:15.732Z,33.47
2017-08-24T23:18:43.201Z,37.23
2017-08-24T23:21:10.686Z,33.23
2017-08-24T23:23:38.358Z,30.63
2017-08-24T23:26:05.831Z,34.33
2017-08-24T23:28:33.303Z,32.00
2017-08-24T23:31:00.799Z,31.60
2017-08-24T23:33:28.270Z,32.00
2017-08-24T23:35:55.851Z,34.27
2017-08-24T23:38:23.408Z,29.87
2017-08-24T23:40:50.891Z,30.23
2017-08-24T23:43:18.472Z,31.63
2017-08-24T23:45:45.981Z,37.00
2017-08-24T23:48:13.536Z,39.53
2017-08-24T23:50:41.097Z,28.43
2017-08-24T23:53:08.552Z,27.77
2017-08-24T23:55:36.034Z,30.63
2017-08-24T23:58:03.496Z,33.30
